sensor_id;sensor_type;location;lat;lon;timestamp;P1;durP1;ratioP1;P2;durP2;ratioP2
66327;SDS011;53133;52.862;6.602;2022-07-04T00:00:04;7.88;;;6.07;;
66327;SDS011;53133;52.862;6.602;2022-07-04T00:02:34;7.70;;;6.25;;
66327;SDS011;53133;52.862;6.602;2022-07-04T00:05:01;9.43;;;6.65;;
66327;SDS011;53133;52.862;6.602;2022-07-04T00:07:26;7.18;;;6.47;;
66327;SDS011;53133;52.862;6.602;2022-07-04T00:09:52;9.82;;;6.40;;
66327;SDS011;53133;52.862;6.602;2022-07-04T00:12:18;10.40;;;6.68;;
66327;SDS011;53133;52.862;6.602;2022-07-04T00:14:44;7.03;;;6.32;;
66327;SDS011;53133;52.862;6.602;2022-07-04T00:17:09;9.32;;;6.38;;
66327;SDS011;53133;52.862;6.602;2022-07-04T00:19:35;7.15;;;6.45;;
66327;SDS011;53133;52.862;6.602;2022-07-04T00:22:01;9.15;;;6.55;;
66327;SDS011;53133;52.862;6.602;2022-07-04T00:24:26;8.65;;;7.03;;
66327;SDS011;53133;52.862;6.602;2022-07-04T00:26:52;6.63;;;5.93;;
66327;SDS011;53133;52.862;6.602;2022-07-04T00:29:17;8.38;;;6.53;;
66327;SDS011;53133;52.862;6.602;2022-07-04T00:31:43;7.90;;;6.35;;
66327;SDS011;53133;52.862;6.602;2022-07-04T00:34:09;7.13;;;5.47;;
66327;SDS011;53133;52.862;6.602;2022-07-04T00:36:34;7.78;;;6.32;;
66327;SDS011;53133;52.862;6.602;2022-07-04T00:39:00;7.43;;;5.97;;
66327;SDS011;53133;52.862;6.602;2022-07-04T00:41:26;6.60;;;5.95;;
66327;SDS011;53133;52.862;6.602;2022-07-04T00:44:08;6.78;;;6.15;;
66327;SDS011;53133;52.862;6.602;2022-07-04T00:46:35;6.90;;;6.28;;
66327;SDS011;53133;52.862;6.602;2022-07-04T00:49:02;9.18;;;6.22;;
66327;SDS011;53133;52.862;6.602;2022-07-04T00:51:29;7.00;;;6.07;;
66327;SDS011;53133;52.862;6.602;2022-07-04T00:53:55;7.72;;;6.55;;
66327;SDS011;53133;52.862;6.602;2022-07-04T00:56:22;6.97;;;5.93;;
66327;SDS011;53133;52.862;6.602;2022-07-04T00:58:48;7.65;;;6.30;;
66327;SDS011;53133;52.862;6.602;2022-07-04T01:01:15;8.00;;;6.45;;
66327;SDS011;53133;52.862;6.602;2022-07-04T01:03:47;7.38;;;6.32;;
66327;SDS011;53133;52.862;6.602;2022-07-04T01:06:14;7.15;;;6.03;;
66327;SDS011;53133;52.862;6.602;2022-07-04T01:08:41;8.57;;;6.32;;
66327;SDS011;53133;52.862;6.602;2022-07-04T01:11:09;7.45;;;5.93;;
66327;SDS011;53133;52.862;6.602;2022-07-04T01:13:35;10.07;;;6.35;;
66327;SDS011;53133;52.862;6.602;2022-07-04T01:16:01;8.82;;;6.07;;
66327;SDS011;53133;52.862;6.602;2022-07-04T01:18:28;8.30;;;6.90;;
66327;SDS011;53133;52.862;6.602;2022-07-04T01:20:53;7.82;;;7.03;;
66327;SDS011;53133;52.862;6.602;2022-07-04T01:23:19;6.97;;;6.00;;
66327;SDS011;53133;52.862;6.602;2022-07-04T01:25:45;6.95;;;6.25;;
66327;SDS011;53133;52.862;6.602;2022-07-04T01:28:10;7.55;;;6.47;;
66327;SDS011;53133;52.862;6.602;2022-07-04T01:30:37;10.13;;;6.75;;
66327;SDS011;53133;52.862;6.602;2022-07-04T01:33:03;6.97;;;6.25;;
66327;SDS011;53133;52.862;6.602;2022-07-04T01:35:29;10.23;;;6.90;;
66327;SDS011;53133;52.862;6.602;2022-07-04T01:37:55;7.80;;;6.28;;
66327;SDS011;53133;52.862;6.602;2022-07-04T01:40:21;8.73;;;6.53;;
66327;SDS011;53133;52.862;6.602;2022-07-04T01:42:47;8.05;;;6.43;;
66327;SDS011;53133;52.862;6.602;2022-07-04T01:45:13;9.80;;;5.80;;
66327;SDS011;53133;52.862;6.602;2022-07-04T01:47:39;7.68;;;6.88;;
66327;SDS011;53133;52.862;6.602;2022-07-04T01:50:05;7.82;;;6.55;;
66327;SDS011;53133;52.862;6.602;2022-07-04T01:52:33;9.35;;;6.60;;
66327;SDS011;53133;52.862;6.602;2022-07-04T01:54:59;7.65;;;6.70;;
66327;SDS011;53133;52.862;6.602;2022-07-04T01:57:25;10.32;;;7.05;;
66327;SDS011;53133;52.862;6.602;2022-07-04T01:59:50;7.40;;;6.70;;
66327;SDS011;53133;52.862;6.602;2022-07-04T02:02:35;8.20;;;7.10;;
66327;SDS011;53133;52.862;6.602;2022-07-04T02:05:03;11.55;;;7.13;;
66327;SDS011;53133;52.862;6.602;2022-07-04T02:07:29;8.63;;;7.05;;
66327;SDS011;53133;52.862;6.602;2022-07-04T02:09:54;8.20;;;7.40;;
66327;SDS011;53133;52.862;6.602;2022-07-04T02:12:20;7.90;;;7.15;;
66327;SDS011;53133;52.862;6.602;2022-07-04T02:15:04;10.55;;;7.43;;
66327;SDS011;53133;52.862;6.602;2022-07-04T02:17:31;7.68;;;6.82;;
66327;SDS011;53133;52.862;6.602;2022-07-04T02:19:56;7.90;;;6.95;;
66327;SDS011;53133;52.862;6.602;2022-07-04T02:22:22;10.52;;;7.15;;
66327;SDS011;53133;52.862;6.602;2022-07-04T02:24:47;8.15;;;7.13;;
66327;SDS011;53133;52.862;6.602;2022-07-04T02:27:13;10.32;;;7.43;;
66327;SDS011;53133;52.862;6.602;2022-07-04T02:29:39;9.70;;;6.97;;
66327;SDS011;53133;52.862;6.602;2022-07-04T02:32:05;9.32;;;7.05;;
66327;SDS011;53133;52.862;6.602;2022-07-04T02:34:31;9.70;;;7.68;;
66327;SDS011;53133;52.862;6.602;2022-07-04T02:36:56;9.02;;;7.50;;
66327;SDS011;53133;52.862;6.602;2022-07-04T02:39:23;7.82;;;7.03;;
66327;SDS011;53133;52.862;6.602;2022-07-04T02:41:49;11.63;;;7.68;;
66327;SDS011;53133;52.862;6.602;2022-07-04T02:44:16;8.63;;;7.72;;
66327;SDS011;53133;52.862;6.602;2022-07-04T02:46:41;11.98;;;7.68;;
66327;SDS011;53133;52.862;6.602;2022-07-04T02:49:07;8.50;;;7.57;;
66327;SDS011;53133;52.862;6.602;2022-07-04T02:51:33;10.70;;;7.70;;
66327;SDS011;53133;52.862;6.602;2022-07-04T02:53:59;10.40;;;8.13;;
66327;SDS011;53133;52.862;6.602;2022-07-04T02:56:25;9.95;;;8.27;;
66327;SDS011;53133;52.862;6.602;2022-07-04T02:58:51;9.13;;;8.07;;
66327;SDS011;53133;52.862;6.602;2022-07-04T03:01:17;9.25;;;7.80;;
66327;SDS011;53133;52.862;6.602;2022-07-04T03:03:44;8.50;;;7.63;;
66327;SDS011;53133;52.862;6.602;2022-07-04T03:06:11;10.23;;;8.20;;
66327;SDS011;53133;52.862;6.602;2022-07-04T03:08:37;8.95;;;7.60;;
66327;SDS011;53133;52.862;6.602;2022-07-04T03:11:03;12.07;;;8.00;;
66327;SDS011;53133;52.862;6.602;2022-07-04T03:13:29;12.50;;;8.20;;
66327;SDS011;53133;52.862;6.602;2022-07-04T03:15:55;9.48;;;8.05;;
66327;SDS011;53133;52.862;6.602;2022-07-04T03:18:21;11.25;;;8.43;;
66327;SDS011;53133;52.862;6.602;2022-07-04T03:20:47;14.20;;;8.77;;
66327;SDS011;53133;52.862;6.602;2022-07-04T03:23:13;13.68;;;8.45;;
66327;SDS011;53133;52.862;6.602;2022-07-04T03:25:39;15.23;;;9.25;;
66327;SDS011;53133;52.862;6.602;2022-07-04T03:28:05;13.82;;;9.00;;
66327;SDS011;53133;52.862;6.602;2022-07-04T03:30:31;10.90;;;9.30;;
66327;SDS011;53133;52.862;6.602;2022-07-04T03:32:57;12.38;;;9.27;;
66327;SDS011;53133;52.862;6.602;2022-07-04T03:35:23;11.40;;;10.00;;
66327;SDS011;53133;52.862;6.602;2022-07-04T03:37:49;13.68;;;9.35;;
66327;SDS011;53133;52.862;6.602;2022-07-04T03:40:16;11.60;;;10.00;;
66327;SDS011;53133;52.862;6.602;2022-07-04T03:42:42;11.23;;;9.93;;
66327;SDS011;53133;52.862;6.602;2022-07-04T03:45:08;11.85;;;10.15;;
66327;SDS011;53133;52.862;6.602;2022-07-04T03:47:34;18.00;;;10.32;;
66327;SDS011;53133;52.862;6.602;2022-07-04T03:50:00;11.68;;;9.80;;
66327;SDS011;53133;52.862;6.602;2022-07-04T03:52:26;15.23;;;10.35;;
66327;SDS011;53133;52.862;6.602;2022-07-04T03:54:52;11.68;;;9.93;;
66327;SDS011;53133;52.862;6.602;2022-07-04T03:57:18;14.07;;;10.50;;
66327;SDS011;53133;52.862;6.602;2022-07-04T03:59:43;12.45;;;10.23;;
66327;SDS011;53133;52.862;6.602;2022-07-04T04:02:09;13.70;;;10.50;;
66327;SDS011;53133;52.862;6.602;2022-07-04T04:04:34;14.07;;;10.55;;
66327;SDS011;53133;52.862;6.602;2022-07-04T04:07:19;12.75;;;10.25;;
66327;SDS011;53133;52.862;6.602;2022-07-04T04:09:44;13.00;;;10.65;;
66327;SDS011;53133;52.862;6.602;2022-07-04T04:12:10;13.32;;;10.00;;
66327;SDS011;53133;52.862;6.602;2022-07-04T04:14:35;14.55;;;11.25;;
66327;SDS011;53133;52.862;6.602;2022-07-04T04:17:01;14.55;;;10.73;;
66327;SDS011;53133;52.862;6.602;2022-07-04T04:19:26;15.50;;;11.75;;
66327;SDS011;53133;52.862;6.602;2022-07-04T04:21:52;14.70;;;11.90;;
66327;SDS011;53133;52.862;6.602;2022-07-04T04:24:17;17.73;;;12.57;;
66327;SDS011;53133;52.862;6.602;2022-07-04T04:26:43;17.35;;;12.73;;
66327;SDS011;53133;52.862;6.602;2022-07-04T04:29:09;17.42;;;13.27;;
66327;SDS011;53133;52.862;6.602;2022-07-04T04:31:34;17.63;;;13.70;;
66327;SDS011;53133;52.862;6.602;2022-07-04T04:34:00;19.60;;;14.65;;
66327;SDS011;53133;52.862;6.602;2022-07-04T04:36:26;20.48;;;15.82;;
66327;SDS011;53133;52.862;6.602;2022-07-04T04:38:52;18.73;;;15.15;;
66327;SDS011;53133;52.862;6.602;2022-07-04T04:41:17;21.35;;;15.50;;
66327;SDS011;53133;52.862;6.602;2022-07-04T04:43:43;17.63;;;15.48;;
66327;SDS011;53133;52.862;6.602;2022-07-04T04:46:09;19.90;;;14.82;;
66327;SDS011;53133;52.862;6.602;2022-07-04T04:48:35;20.80;;;14.75;;
66327;SDS011;53133;52.862;6.602;2022-07-04T04:51:00;16.13;;;13.82;;
66327;SDS011;53133;52.862;6.602;2022-07-04T04:53:26;20.13;;;13.30;;
66327;SDS011;53133;52.862;6.602;2022-07-04T04:55:52;17.08;;;13.20;;
66327;SDS011;53133;52.862;6.602;2022-07-04T04:58:19;14.27;;;11.98;;
66327;SDS011;53133;52.862;6.602;2022-07-04T05:00:45;17.33;;;12.52;;
66327;SDS011;53133;52.862;6.602;2022-07-04T05:03:13;14.57;;;11.05;;
66327;SDS011;53133;52.862;6.602;2022-07-04T05:05:38;16.15;;;12.10;;
66327;SDS011;53133;52.862;6.602;2022-07-04T05:08:04;16.42;;;11.30;;
66327;SDS011;53133;52.862;6.602;2022-07-04T05:10:30;15.27;;;10.68;;
66327;SDS011;53133;52.862;6.602;2022-07-04T05:12:55;12.73;;;10.93;;
66327;SDS011;53133;52.862;6.602;2022-07-04T05:15:21;15.15;;;10.43;;
66327;SDS011;53133;52.862;6.602;2022-07-04T05:17:47;16.40;;;10.30;;
66327;SDS011;53133;52.862;6.602;2022-07-04T05:20:12;15.15;;;10.43;;
66327;SDS011;53133;52.862;6.602;2022-07-04T05:22:38;16.25;;;11.00;;
66327;SDS011;53133;52.862;6.602;2022-07-04T05:25:04;13.27;;;10.50;;
66327;SDS011;53133;52.862;6.602;2022-07-04T05:27:30;15.07;;;10.57;;
66327;SDS011;53133;52.862;6.602;2022-07-04T05:29:56;15.13;;;10.90;;
66327;SDS011;53133;52.862;6.602;2022-07-04T05:32:23;14.30;;;10.25;;
66327;SDS011;53133;52.862;6.602;2022-07-04T05:34:49;14.90;;;10.50;;
66327;SDS011;53133;52.862;6.602;2022-07-04T05:37:15;19.02;;;11.00;;
66327;SDS011;53133;52.862;6.602;2022-07-04T05:39:40;14.82;;;11.27;;
66327;SDS011;53133;52.862;6.602;2022-07-04T05:42:06;14.48;;;10.65;;
66327;SDS011;53133;52.862;6.602;2022-07-04T05:44:31;14.38;;;10.82;;
66327;SDS011;53133;52.862;6.602;2022-07-04T05:46:57;14.35;;;10.38;;
66327;SDS011;53133;52.862;6.602;2022-07-04T05:49:23;15.65;;;11.20;;
66327;SDS011;53133;52.862;6.602;2022-07-04T05:51:48;15.55;;;11.25;;
66327;SDS011;53133;52.862;6.602;2022-07-04T05:54:14;15.95;;;11.00;;
66327;SDS011;53133;52.862;6.602;2022-07-04T05:56:39;13.50;;;10.43;;
66327;SDS011;53133;52.862;6.602;2022-07-04T05:59:07;15.23;;;10.30;;
66327;SDS011;53133;52.862;6.602;2022-07-04T06:01:34;12.70;;;10.65;;
66327;SDS011;53133;52.862;6.602;2022-07-04T06:03:59;15.02;;;10.43;;
66327;SDS011;53133;52.862;6.602;2022-07-04T06:06:25;18.70;;;9.32;;
66327;SDS011;53133;52.862;6.602;2022-07-04T06:08:51;16.90;;;9.85;;
66327;SDS011;53133;52.862;6.602;2022-07-04T06:11:16;13.52;;;10.00;;
66327;SDS011;53133;52.862;6.602;2022-07-04T06:13:43;11.98;;;8.73;;
66327;SDS011;53133;52.862;6.602;2022-07-04T06:16:08;14.57;;;8.35;;
66327;SDS011;53133;52.862;6.602;2022-07-04T06:18:34;13.82;;;8.80;;
66327;SDS011;53133;52.862;6.602;2022-07-04T06:21:00;12.45;;;8.02;;
66327;SDS011;53133;52.862;6.602;2022-07-04T06:23:25;11.60;;;8.57;;
66327;SDS011;53133;52.862;6.602;2022-07-04T06:25:51;13.52;;;8.68;;
66327;SDS011;53133;52.862;6.602;2022-07-04T06:28:16;11.95;;;8.63;;
66327;SDS011;53133;52.862;6.602;2022-07-04T06:30:42;14.90;;;8.23;;
66327;SDS011;53133;52.862;6.602;2022-07-04T06:33:08;15.00;;;8.10;;
66327;SDS011;53133;52.862;6.602;2022-07-04T06:35:33;11.43;;;7.68;;
66327;SDS011;53133;52.862;6.602;2022-07-04T06:38:20;11.98;;;7.97;;
66327;SDS011;53133;52.862;6.602;2022-07-04T06:40:48;12.45;;;7.60;;
66327;SDS011;53133;52.862;6.602;2022-07-04T06:43:16;11.73;;;7.53;;
66327;SDS011;53133;52.862;6.602;2022-07-04T06:45:42;12.13;;;7.05;;
66327;SDS011;53133;52.862;6.602;2022-07-04T06:48:07;11.88;;;7.28;;
66327;SDS011;53133;52.862;6.602;2022-07-04T06:50:33;10.25;;;7.25;;
66327;SDS011;53133;52.862;6.602;2022-07-04T06:53:03;16.60;;;7.80;;
66327;SDS011;53133;52.862;6.602;2022-07-04T06:57:57;11.85;;;7.40;;
66327;SDS011;53133;52.862;6.602;2022-07-04T07:00:23;12.05;;;7.70;;
66327;SDS011;53133;52.862;6.602;2022-07-04T07:02:49;11.65;;;7.95;;
66327;SDS011;53133;52.862;6.602;2022-07-04T07:05:15;13.80;;;8.10;;
66327;SDS011;53133;52.862;6.602;2022-07-04T07:07:41;12.52;;;8.07;;
66327;SDS011;53133;52.862;6.602;2022-07-04T07:10:07;14.73;;;9.07;;
66327;SDS011;53133;52.862;6.602;2022-07-04T07:12:33;14.15;;;8.00;;
66327;SDS011;53133;52.862;6.602;2022-07-04T07:14:59;15.20;;;7.82;;
66327;SDS011;53133;52.862;6.602;2022-07-04T07:17:25;12.38;;;8.20;;
66327;SDS011;53133;52.862;6.602;2022-07-04T07:19:51;14.60;;;8.68;;
66327;SDS011;53133;52.862;6.602;2022-07-04T07:22:17;16.02;;;8.07;;
66327;SDS011;53133;52.862;6.602;2022-07-04T07:24:43;13.55;;;8.07;;
66327;SDS011;53133;52.862;6.602;2022-07-04T07:27:09;12.13;;;7.50;;
66327;SDS011;53133;52.862;6.602;2022-07-04T07:29:35;15.60;;;7.88;;
66327;SDS011;53133;52.862;6.602;2022-07-04T07:32:02;12.38;;;7.47;;
66327;SDS011;53133;52.862;6.602;2022-07-04T07:34:28;11.93;;;7.65;;
66327;SDS011;53133;52.862;6.602;2022-07-04T07:36:53;14.27;;;7.72;;
66327;SDS011;53133;52.862;6.602;2022-07-04T07:39:19;16.83;;;7.82;;
66327;SDS011;53133;52.862;6.602;2022-07-04T07:41:45;13.77;;;7.13;;
66327;SDS011;53133;52.862;6.602;2022-07-04T07:44:11;12.98;;;7.38;;
66327;SDS011;53133;52.862;6.602;2022-07-04T07:46:36;11.93;;;7.18;;
66327;SDS011;53133;52.862;6.602;2022-07-04T07:49:02;14.48;;;7.50;;
66327;SDS011;53133;52.862;6.602;2022-07-04T07:51:28;11.43;;;6.60;;
66327;SDS011;53133;52.862;6.602;2022-07-04T07:53:54;12.00;;;5.95;;
66327;SDS011;53133;52.862;6.602;2022-07-04T07:56:20;14.40;;;6.55;;
66327;SDS011;53133;52.862;6.602;2022-07-04T07:58:45;13.73;;;5.57;;
66327;SDS011;53133;52.862;6.602;2022-07-04T08:01:11;15.25;;;5.88;;
66327;SDS011;53133;52.862;6.602;2022-07-04T08:03:36;10.88;;;5.32;;
66327;SDS011;53133;52.862;6.602;2022-07-04T08:06:21;11.57;;;6.07;;
66327;SDS011;53133;52.862;6.602;2022-07-04T08:08:47;12.90;;;6.22;;
66327;SDS011;53133;52.862;6.602;2022-07-04T08:11:12;10.63;;;6.25;;
66327;SDS011;53133;52.862;6.602;2022-07-04T08:13:38;14.02;;;5.82;;
66327;SDS011;53133;52.862;6.602;2022-07-04T08:16:05;14.75;;;5.85;;
66327;SDS011;53133;52.862;6.602;2022-07-04T08:18:32;10.63;;;5.43;;
66327;SDS011;53133;52.862;6.602;2022-07-04T08:20:58;9.18;;;5.00;;
66327;SDS011;53133;52.862;6.602;2022-07-04T08:23:24;11.52;;;5.10;;
66327;SDS011;53133;52.862;6.602;2022-07-04T08:25:51;9.85;;;4.68;;
66327;SDS011;53133;52.862;6.602;2022-07-04T08:28:17;13.82;;;4.57;;
66327;SDS011;53133;52.862;6.602;2022-07-04T08:30:42;8.77;;;4.00;;
66327;SDS011;53133;52.862;6.602;2022-07-04T08:33:08;9.07;;;3.80;;
66327;SDS011;53133;52.862;6.602;2022-07-04T08:35:34;9.23;;;4.30;;
66327;SDS011;53133;52.862;6.602;2022-07-04T08:38:00;8.75;;;3.20;;
66327;SDS011;53133;52.862;6.602;2022-07-04T08:40:26;6.47;;;3.35;;
66327;SDS011;53133;52.862;6.602;2022-07-04T08:42:52;4.60;;;3.13;;
66327;SDS011;53133;52.862;6.602;2022-07-04T08:45:25;9.93;;;3.53;;
66327;SDS011;53133;52.862;6.602;2022-07-04T08:48:02;11.52;;;3.45;;
66327;SDS011;53133;52.862;6.602;2022-07-04T08:50:31;4.22;;;2.38;;
66327;SDS011;53133;52.862;6.602;2022-07-04T08:53:09;4.88;;;2.58;;
66327;SDS011;53133;52.862;6.602;2022-07-04T08:55:36;5.65;;;2.53;;
66327;SDS011;53133;52.862;6.602;2022-07-04T08:58:22;7.20;;;2.50;;
66327;SDS011;53133;52.862;6.602;2022-07-04T09:01:00;8.48;;;2.50;;
66327;SDS011;53133;52.862;6.602;2022-07-04T09:03:28;6.90;;;2.55;;
66327;SDS011;53133;52.862;6.602;2022-07-04T09:05:55;4.47;;;2.40;;
66327;SDS011;53133;52.862;6.602;2022-07-04T09:08:22;4.13;;;2.40;;
66327;SDS011;53133;52.862;6.602;2022-07-04T09:10:49;6.38;;;2.50;;
66327;SDS011;53133;52.862;6.602;2022-07-04T09:13:15;3.33;;;2.20;;
66327;SDS011;53133;52.862;6.602;2022-07-04T09:15:43;7.68;;;2.60;;
66327;SDS011;53133;52.862;6.602;2022-07-04T09:18:45;6.95;;;2.22;;
66327;SDS011;53133;52.862;6.602;2022-07-04T09:21:07;6.63;;;2.47;;
66327;SDS011;53133;52.862;6.602;2022-07-04T09:23:43;7.97;;;3.08;;
66327;SDS011;53133;52.862;6.602;2022-07-04T09:26:19;5.47;;;2.25;;
66327;SDS011;53133;52.862;6.602;2022-07-04T09:28:55;5.88;;;2.70;;
66327;SDS011;53133;52.862;6.602;2022-07-04T09:31:26;5.88;;;3.13;;
66327;SDS011;53133;52.862;6.602;2022-07-04T09:33:57;6.47;;;3.00;;
66327;SDS011;53133;52.862;6.602;2022-07-04T09:36:25;9.52;;;3.03;;
66327;SDS011;53133;52.862;6.602;2022-07-04T09:39:05;8.70;;;2.85;;
66327;SDS011;53133;52.862;6.602;2022-07-04T09:41:58;8.50;;;3.03;;
66327;SDS011;53133;52.862;6.602;2022-07-04T09:44:43;5.03;;;2.83;;
66327;SDS011;53133;52.862;6.602;2022-07-04T09:47:24;5.35;;;2.50;;
66327;SDS011;53133;52.862;6.602;2022-07-04T09:50:00;6.30;;;2.10;;
66327;SDS011;53133;52.862;6.602;2022-07-04T09:52:28;5.68;;;2.30;;
66327;SDS011;53133;52.862;6.602;2022-07-04T09:54:58;6.32;;;2.40;;
66327;SDS011;53133;52.862;6.602;2022-07-04T09:57:25;4.40;;;2.20;;
66327;SDS011;53133;52.862;6.602;2022-07-04T09:59:50;10.88;;;3.35;;
66327;SDS011;53133;52.862;6.602;2022-07-04T10:02:16;2.97;;;2.17;;
66327;SDS011;53133;52.862;6.602;2022-07-04T10:04:51;6.35;;;2.38;;
66327;SDS011;53133;52.862;6.602;2022-07-04T10:07:30;12.68;;;3.13;;
66327;SDS011;53133;52.862;6.602;2022-07-04T10:10:01;7.07;;;2.50;;
66327;SDS011;53133;52.862;6.602;2022-07-04T10:12:49;4.75;;;2.00;;
66327;SDS011;53133;52.862;6.602;2022-07-04T10:15:19;10.75;;;3.05;;
66327;SDS011;53133;52.862;6.602;2022-07-04T10:17:45;4.63;;;1.95;;
66327;SDS011;53133;52.862;6.602;2022-07-04T10:20:11;4.25;;;2.15;;
66327;SDS011;53133;52.862;6.602;2022-07-04T10:22:37;3.22;;;2.10;;
66327;SDS011;53133;52.862;6.602;2022-07-04T10:25:04;7.20;;;2.13;;
66327;SDS011;53133;52.862;6.602;2022-07-04T10:27:31;4.85;;;1.95;;
66327;SDS011;53133;52.862;6.602;2022-07-04T10:30:00;3.28;;;2.10;;
66327;SDS011;53133;52.862;6.602;2022-07-04T10:32:28;6.78;;;2.30;;
66327;SDS011;53133;52.862;6.602;2022-07-04T10:34:55;4.25;;;1.80;;
66327;SDS011;53133;52.862;6.602;2022-07-04T10:37:21;4.97;;;1.90;;
66327;SDS011;53133;52.862;6.602;2022-07-04T10:39:47;4.80;;;1.90;;
66327;SDS011;53133;52.862;6.602;2022-07-04T10:42:22;4.13;;;2.08;;
66327;SDS011;53133;52.862;6.602;2022-07-04T10:44:49;4.53;;;2.30;;
66327;SDS011;53133;52.862;6.602;2022-07-04T10:47:24;3.67;;;1.95;;
66327;SDS011;53133;52.862;6.602;2022-07-04T10:49:52;2.97;;;1.90;;
66327;SDS011;53133;52.862;6.602;2022-07-04T10:52:18;3.88;;;2.00;;
66327;SDS011;53133;52.862;6.602;2022-07-04T10:54:44;3.88;;;2.00;;
66327;SDS011;53133;52.862;6.602;2022-07-04T10:57:19;3.55;;;2.33;;
66327;SDS011;53133;52.862;6.602;2022-07-04T11:02:35;5.53;;;2.53;;
66327;SDS011;53133;52.862;6.602;2022-07-04T11:20:25;7.80;;;2.90;;
66327;SDS011;53133;52.862;6.602;2022-07-04T11:22:53;11.20;;;3.15;;
66327;SDS011;53133;52.862;6.602;2022-07-04T11:25:28;6.72;;;2.80;;
66327;SDS011;53133;52.862;6.602;2022-07-04T11:27:54;6.65;;;2.90;;
66327;SDS011;53133;52.862;6.602;2022-07-04T11:30:19;5.38;;;2.63;;
66327;SDS011;53133;52.862;6.602;2022-07-04T11:32:45;4.50;;;2.40;;
66327;SDS011;53133;52.862;6.602;2022-07-04T11:35:11;4.88;;;2.35;;
66327;SDS011;53133;52.862;6.602;2022-07-04T11:37:36;5.05;;;2.17;;
66327;SDS011;53133;52.862;6.602;2022-07-04T11:40:02;3.10;;;1.67;;
66327;SDS011;53133;52.862;6.602;2022-07-04T11:43:04;2.20;;;1.77;;
66327;SDS011;53133;52.862;6.602;2022-07-04T11:45:52;2.13;;;1.80;;
66327;SDS011;53133;52.862;6.602;2022-07-04T11:50:51;4.30;;;1.80;;
66327;SDS011;53133;52.862;6.602;2022-07-04T11:53:17;3.38;;;1.95;;
66327;SDS011;53133;52.862;6.602;2022-07-04T11:55:56;2.47;;;1.80;;
66327;SDS011;53133;52.862;6.602;2022-07-04T11:58:37;2.60;;;1.60;;
66327;SDS011;53133;52.862;6.602;2022-07-04T12:01:04;2.28;;;1.77;;
66327;SDS011;53133;52.862;6.602;2022-07-04T12:03:31;2.92;;;1.65;;
66327;SDS011;53133;52.862;6.602;2022-07-04T12:06:01;4.28;;;1.70;;
66327;SDS011;53133;52.862;6.602;2022-07-04T12:08:27;3.38;;;1.40;;
66327;SDS011;53133;52.862;6.602;2022-07-04T12:10:53;2.50;;;1.48;;
66327;SDS011;53133;52.862;6.602;2022-07-04T12:13:19;3.13;;;1.50;;
66327;SDS011;53133;52.862;6.602;2022-07-04T12:15:47;2.28;;;1.20;;
66327;SDS011;53133;52.862;6.602;2022-07-04T12:18:24;3.78;;;1.48;;
66327;SDS011;53133;52.862;6.602;2022-07-04T12:20:53;2.53;;;1.30;;
66327;SDS011;53133;52.862;6.602;2022-07-04T12:23:20;3.75;;;1.38;;
66327;SDS011;53133;52.862;6.602;2022-07-04T12:25:47;3.03;;;1.33;;
66327;SDS011;53133;52.862;6.602;2022-07-04T12:28:16;3.03;;;1.60;;
66327;SDS011;53133;52.862;6.602;2022-07-04T12:30:53;3.67;;;1.50;;
66327;SDS011;53133;52.862;6.602;2022-07-04T12:33:23;1.95;;;1.50;;
66327;SDS011;53133;52.862;6.602;2022-07-04T12:35:51;2.47;;;1.48;;
66327;SDS011;53133;52.862;6.602;2022-07-04T12:38:37;2.50;;;1.20;;
66327;SDS011;53133;52.862;6.602;2022-07-04T12:41:10;2.33;;;1.27;;
66327;SDS011;53133;52.862;6.602;2022-07-04T12:46:05;2.28;;;1.30;;
66327;SDS011;53133;52.862;6.602;2022-07-04T12:48:31;9.15;;;1.20;;
66327;SDS011;53133;52.862;6.602;2022-07-04T12:51:11;3.38;;;1.08;;
66327;SDS011;53133;52.862;6.602;2022-07-04T12:53:41;2.13;;;1.10;;
66327;SDS011;53133;52.862;6.602;2022-07-04T12:56:08;1.88;;;1.20;;
66327;SDS011;53133;52.862;6.602;2022-07-04T12:58:35;1.73;;;1.00;;
66327;SDS011;53133;52.862;6.602;2022-07-04T13:01:00;1.77;;;1.23;;
66327;SDS011;53133;52.862;6.602;2022-07-04T13:03:26;4.05;;;1.05;;
66327;SDS011;53133;52.862;6.602;2022-07-04T13:05:53;4.10;;;1.40;;
66327;SDS011;53133;52.862;6.602;2022-07-04T13:08:22;1.10;;;0.82;;
66327;SDS011;53133;52.862;6.602;2022-07-04T13:10:47;2.35;;;1.05;;
66327;SDS011;53133;52.862;6.602;2022-07-04T13:13:13;2.17;;;1.00;;
66327;SDS011;53133;52.862;6.602;2022-07-04T13:15:39;2.13;;;0.93;;
66327;SDS011;53133;52.862;6.602;2022-07-04T13:18:04;1.15;;;0.82;;
66327;SDS011;53133;52.862;6.602;2022-07-04T13:20:30;2.45;;;0.95;;
66327;SDS011;53133;52.862;6.602;2022-07-04T13:22:55;2.72;;;1.00;;
66327;SDS011;53133;52.862;6.602;2022-07-04T13:25:21;1.83;;;1.00;;
66327;SDS011;53133;52.862;6.602;2022-07-04T13:27:47;1.67;;;1.05;;
66327;SDS011;53133;52.862;6.602;2022-07-04T13:30:13;2.78;;;1.10;;
66327;SDS011;53133;52.862;6.602;2022-07-04T13:32:38;2.67;;;1.02;;
66327;SDS011;53133;52.862;6.602;2022-07-04T13:35:05;2.33;;;1.10;;
66327;SDS011;53133;52.862;6.602;2022-07-04T13:37:31;2.15;;;1.02;;
66327;SDS011;53133;52.862;6.602;2022-07-04T13:39:57;4.15;;;1.13;;
66327;SDS011;53133;52.862;6.602;2022-07-04T13:42:22;1.85;;;1.08;;
66327;SDS011;53133;52.862;6.602;2022-07-04T13:45:07;3.75;;;1.02;;
66327;SDS011;53133;52.862;6.602;2022-07-04T13:47:33;2.65;;;1.10;;
66327;SDS011;53133;52.862;6.602;2022-07-04T13:49:59;3.00;;;1.15;;
66327;SDS011;53133;52.862;6.602;2022-07-04T13:52:25;2.13;;;1.05;;
66327;SDS011;53133;52.862;6.602;2022-07-04T13:54:51;1.20;;;0.90;;
66327;SDS011;53133;52.862;6.602;2022-07-04T13:57:16;3.95;;;1.10;;
66327;SDS011;53133;52.862;6.602;2022-07-04T13:59:42;4.03;;;1.20;;
66327;SDS011;53133;52.862;6.602;2022-07-04T14:02:08;2.70;;;1.30;;
66327;SDS011;53133;52.862;6.602;2022-07-04T14:04:33;2.65;;;1.13;;
66327;SDS011;53133;52.862;6.602;2022-07-04T14:06:59;2.00;;;1.10;;
66327;SDS011;53133;52.862;6.602;2022-07-04T14:09:25;2.35;;;1.10;;
66327;SDS011;53133;52.862;6.602;2022-07-04T14:11:51;2.03;;;1.10;;
66327;SDS011;53133;52.862;6.602;2022-07-04T14:14:16;4.28;;;1.10;;
66327;SDS011;53133;52.862;6.602;2022-07-04T14:16:42;2.70;;;1.10;;
66327;SDS011;53133;52.862;6.602;2022-07-04T14:19:07;2.40;;;1.00;;
66327;SDS011;53133;52.862;6.602;2022-07-04T14:21:33;1.88;;;0.90;;
66327;SDS011;53133;52.862;6.602;2022-07-04T14:23:58;2.17;;;1.20;;
66327;SDS011;53133;52.862;6.602;2022-07-04T14:26:24;1.88;;;1.15;;
66327;SDS011;53133;52.862;6.602;2022-07-04T14:28:50;2.40;;;1.20;;
66327;SDS011;53133;52.862;6.602;2022-07-04T14:31:16;1.73;;;1.17;;
66327;SDS011;53133;52.862;6.602;2022-07-04T14:33:42;3.20;;;1.02;;
66327;SDS011;53133;52.862;6.602;2022-07-04T14:36:08;1.75;;;1.00;;
66327;SDS011;53133;52.862;6.602;2022-07-04T14:38:35;5.13;;;1.13;;
66327;SDS011;53133;52.862;6.602;2022-07-04T14:41:01;2.00;;;1.05;;
66327;SDS011;53133;52.862;6.602;2022-07-04T14:43:40;3.30;;;1.20;;
66327;SDS011;53133;52.862;6.602;2022-07-04T14:46:06;2.92;;;1.10;;
66327;SDS011;53133;52.862;6.602;2022-07-04T14:48:32;2.30;;;1.00;;
66327;SDS011;53133;52.862;6.602;2022-07-04T14:50:58;2.00;;;1.17;;
66327;SDS011;53133;52.862;6.602;2022-07-04T14:53:24;1.60;;;0.98;;
66327;SDS011;53133;52.862;6.602;2022-07-04T14:55:50;1.85;;;1.00;;
66327;SDS011;53133;52.862;6.602;2022-07-04T14:58:16;2.42;;;1.10;;
66327;SDS011;53133;52.862;6.602;2022-07-04T15:00:42;4.35;;;0.93;;
66327;SDS011;53133;52.862;6.602;2022-07-04T15:03:08;2.78;;;0.85;;
66327;SDS011;53133;52.862;6.602;2022-07-04T15:05:33;3.08;;;0.95;;
66327;SDS011;53133;52.862;6.602;2022-07-04T15:07:59;3.35;;;1.33;;